sensor_id;sensor_type;location;lat;lon;timestamp;pressure;altitude;pressure_sealevel;temperature;humidity
29903;BME280;30288;50.514;9.678;2023-02-01T00:01:15;99008.34;;;3.74;100.00
29903;BME280;30288;50.514;9.678;2023-02-01T00:03:20;99007.53;;;3.75;100.00
29903;BME280;30288;50.514;9.678;2023-02-01T00:05:25;99008.31;;;3.71;100.00
29903;BME280;30288;50.514;9.678;2023-02-01T00:07:30;99009.16;;;3.73;100.00
29903;BME280;30288;50.514;9.678;2023-02-01T00:09:35;99008.34;;;3.78;100.00
29903;BME280;30288;50.514;9.678;2023-02-01T00:11:41;99008.34;;;3.77;100.00
29903;BME280;30288;50.514;9.678;2023-02-01T00:13:49;99005.84;;;3.77;100.00
29903;BME280;30288;50.514;9.678;2023-02-01T00:15:54;99009.16;;;3.76;100.00
29903;BME280;30288;50.514;9.678;2023-02-01T00:17:59;99015.78;;;3.71;100.00
29903;BME280;30288;50.514;9.678;2023-02-01T00:20:06;99007.50;;;3.73;100.00
29903;BME280;30288;50.514;9.678;2023-02-01T00:22:11;99010.00;;;3.75;100.00
29903;BME280;30288;50.514;9.678;2023-02-01T00:24:17;99008.34;;;3.74;100.00
29903;BME280;30288;50.514;9.678;2023-02-01T00:26:30;99012.47;;;3.72;100.00
29903;BME280;30288;50.514;9.678;2023-02-01T00:28:35;99007.50;;;3.66;100.00
29903;BME280;30288;50.514;9.678;2023-02-01T00:30:43;99008.28;;;3.63;100.00
29903;BME280;30288;50.514;9.678;2023-02-01T00:32:48;98995.84;;;3.66;100.00
29903;BME280;30288;50.514;9.678;2023-02-01T00:34:54;98995.03;;;3.67;100.00
29903;BME280;30288;50.514;9.678;2023-02-01T00:36:59;99000.03;;;3.69;100.00
29903;BME280;30288;50.514;9.678;2023-02-01T00:39:05;98995.84;;;3.71;100.00
29903;BME280;30288;50.514;9.678;2023-02-01T00:41:15;99000.03;;;3.72;100.00
29903;BME280;30288;50.514;9.678;2023-02-01T00:43:20;99005.88;;;3.80;100.00
29903;BME280;30288;50.514;9.678;2023-02-01T00:45:26;99000.91;;;3.86;100.00
29903;BME280;30288;50.514;9.678;2023-02-01T00:47:34;99011.72;;;3.88;100.00
29903;BME280;30288;50.514;9.678;2023-02-01T00:49:39;99002.56;;;3.87;100.00
29903;BME280;30288;50.514;9.678;2023-02-01T00:51:44;99005.03;;;3.85;100.00
29903;BME280;30288;50.514;9.678;2023-02-01T00:53:50;98997.59;;;3.87;100.00
29903;BME280;30288;50.514;9.678;2023-02-01T00:55:55;98995.91;;;3.86;100.00
29903;BME280;30288;50.514;9.678;2023-02-01T00:58:01;99004.25;;;3.91;100.00
29903;BME280;30288;50.514;9.678;2023-02-01T01:00:10;98990.97;;;3.95;100.00
29903;BME280;30288;50.514;9.678;2023-02-01T01:02:15;98991.78;;;3.95;100.00
29903;BME280;30288;50.514;9.678;2023-02-01T01:04:24;98988.50;;;4.01;100.00
29903;BME280;30288;50.514;9.678;2023-02-01T01:06:31;98988.50;;;4.03;100.00
29903;BME280;30288;50.514;9.678;2023-02-01T01:08:38;98978.50;;;3.95;100.00
29903;BME280;30288;50.514;9.678;2023-02-01T01:10:44;98984.31;;;3.91;100.00
29903;BME280;30288;50.514;9.678;2023-02-01T01:12:49;98967.72;;;3.93;100.00
29903;BME280;30288;50.514;9.678;2023-02-01T01:14:55;98982.69;;;4.02;100.00
29903;BME280;30288;50.514;9.678;2023-02-01T01:17:00;98985.16;;;4.01;100.00
29903;BME280;30288;50.514;9.678;2023-02-01T01:19:05;98972.72;;;4.02;100.00
29903;BME280;30288;50.514;9.678;2023-02-01T01:21:15;98974.34;;;4.00;100.00
29903;BME280;30288;50.514;9.678;2023-02-01T01:23:20;98979.34;;;4.00;100.00
29903;BME280;30288;50.514;9.678;2023-02-01T01:25:25;98981.84;;;4.00;100.00
29903;BME280;30288;50.514;9.678;2023-02-01T01:27:30;98974.38;;;4.06;100.00
29903;BME280;30288;50.514;9.678;2023-02-01T01:29:36;98964.41;;;4.06;100.00
29903;BME280;30288;50.514;9.678;2023-02-01T01:31:41;98974.38;;;4.15;100.00
29903;BME280;30288;50.514;9.678;2023-02-01T01:33:52;98972.72;;;4.23;100.00
29903;BME280;30288;50.514;9.678;2023-02-01T01:35:57;98975.22;;;4.23;100.00
29903;BME280;30288;50.514;9.678;2023-02-01T01:38:05;98971.91;;;4.24;100.00
29903;BME280;30288;50.514;9.678;2023-02-01T01:40:11;98981.06;;;4.22;100.00
29903;BME280;30288;50.514;9.678;2023-02-01T01:42:17;98982.72;;;4.29;100.00
29903;BME280;30288;50.514;9.678;2023-02-01T01:45:00;98974.44;;;4.27;100.00
29903;BME280;30288;50.514;9.678;2023-02-01T01:47:08;98971.09;;;4.22;100.00
29903;BME280;30288;50.514;9.678;2023-02-01T01:49:17;98964.41;;;4.18;100.00
29903;BME280;30288;50.514;9.678;2023-02-01T01:51:26;98964.44;;;4.15;100.00
29903;BME280;30288;50.514;9.678;2023-02-01T01:53:40;98959.44;;;4.15;100.00
29903;BME280;30288;50.514;9.678;2023-02-01T01:55:48;98952.81;;;4.13;100.00
29903;BME280;30288;50.514;9.678;2023-02-01T01:57:59;98954.44;;;4.09;100.00
29903;BME280;30288;50.514;9.678;2023-02-01T02:00:11;98956.13;;;4.13;100.00
29903;BME280;30288;50.514;9.678;2023-02-01T02:02:19;98966.09;;;4.13;100.00
29903;BME280;30288;50.514;9.678;2023-02-01T02:04:25;98956.13;;;4.19;100.00
29903;BME280;30288;50.514;9.678;2023-02-01T02:06:41;98947.00;;;4.23;100.00
29903;BME280;30288;50.514;9.678;2023-02-01T02:08:52;98947.81;;;4.20;100.00
29903;BME280;30288;50.514;9.678;2023-02-01T02:10:58;98938.66;;;4.15;100.00
29903;BME280;30288;50.514;9.678;2023-02-01T02:13:05;98937.03;;;4.12;100.00
29903;BME280;30288;50.514;9.678;2023-02-01T02:15:14;98934.50;;;4.06;100.00
29903;BME280;30288;50.514;9.678;2023-02-01T02:17:30;98929.53;;;4.06;100.00
29903;BME280;30288;50.514;9.678;2023-02-01T02:20:22;98927.88;;;4.08;100.00
29903;BME280;30288;50.514;9.678;2023-02-01T02:25:38;98917.06;;;4.11;100.00
29903;BME280;30288;50.514;9.678;2023-02-01T02:27:52;98935.34;;;4.07;100.00
29903;BME280;30288;50.514;9.678;2023-02-01T02:30:35;98932.84;;;4.05;100.00
29903;BME280;30288;50.514;9.678;2023-02-01T02:35:46;98922.88;;;3.99;100.00
29903;BME280;30288;50.514;9.678;2023-02-01T02:38:06;98921.22;;;3.98;100.00
29903;BME280;30288;50.514;9.678;2023-02-01T02:40:22;98922.88;;;4.05;100.00
29903;BME280;30288;50.514;9.678;2023-02-01T02:42:39;98920.41;;;4.11;100.00
29903;BME280;30288;50.514;9.678;2023-02-01T02:45:06;98929.53;;;4.15;100.00
29903;BME280;30288;50.514;9.678;2023-02-01T02:47:32;98937.00;;;4.20;100.00
29903;BME280;30288;50.514;9.678;2023-02-01T02:49:49;98928.72;;;4.22;100.00
29903;BME280;30288;50.514;9.678;2023-02-01T02:52:18;98915.41;;;4.16;100.00
29903;BME280;30288;50.514;9.678;2023-02-01T02:54:43;98922.91;;;4.08;100.00
29903;BME280;30288;50.514;9.678;2023-02-01T02:56:55;98914.59;;;4.03;100.00
29903;BME280;30288;50.514;9.678;2023-02-01T02:59:19;98912.91;;;4.01;100.00
29903;BME280;30288;50.514;9.678;2023-02-01T03:01:40;98895.47;;;4.10;100.00
29903;BME280;30288;50.514;9.678;2023-02-01T03:03:58;98876.34;;;4.04;100.00
29903;BME280;30288;50.514;9.678;2023-02-01T03:06:18;98870.56;;;4.07;100.00
29903;BME280;30288;50.514;9.678;2023-02-01T03:08:25;98861.41;;;4.10;100.00
29903;BME280;30288;50.514;9.678;2023-02-01T03:10:48;98858.09;;;4.14;100.00
29903;BME280;30288;50.514;9.678;2023-02-01T03:13:04;98858.09;;;4.17;100.00
29903;BME280;30288;50.514;9.678;2023-02-01T03:15:11;98863.09;;;4.17;100.00
29903;BME280;30288;50.514;9.678;2023-02-01T03:17:22;98856.44;;;4.16;100.00
29903;BME280;30288;50.514;9.678;2023-02-01T03:19:33;98863.06;;;4.14;100.00
29903;BME280;30288;50.514;9.678;2023-02-01T03:21:45;98853.09;;;4.14;100.00
29903;BME280;30288;50.514;9.678;2023-02-01T03:23:55;98856.44;;;4.22;100.00
29903;BME280;30288;50.514;9.678;2023-02-01T03:26:02;98864.72;;;4.24;100.00
29903;BME280;30288;50.514;9.678;2023-02-01T03:28:10;98869.72;;;4.36;100.00
29903;BME280;30288;50.514;9.678;2023-02-01T03:30:21;98866.38;;;4.40;100.00
29903;BME280;30288;50.514;9.678;2023-02-01T03:32:28;98886.34;;;4.47;100.00
29903;BME280;30288;50.514;9.678;2023-02-01T03:34:54;98884.66;;;4.50;100.00
29903;BME280;30288;50.514;9.678;2023-02-01T03:37:04;98892.97;;;4.45;100.00
29903;BME280;30288;50.514;9.678;2023-02-01T03:39:17;98878.81;;;4.42;100.00
29903;BME280;30288;50.514;9.678;2023-02-01T03:41:34;98876.34;;;4.37;100.00
29903;BME280;30288;50.514;9.678;2023-02-01T03:43:51;98889.66;;;4.39;100.00
29903;BME280;30288;50.514;9.678;2023-02-01T03:46:03;98882.16;;;4.50;100.00
29903;BME280;30288;50.514;9.678;2023-02-01T03:48:12;98878.81;;;4.60;100.00
29903;BME280;30288;50.514;9.678;2023-02-01T03:50:20;98887.13;;;4.59;100.00
29903;BME280;30288;50.514;9.678;2023-02-01T03:52:34;98883.00;;;4.51;100.00
29903;BME280;30288;50.514;9.678;2023-02-01T03:54:44;98873.00;;;4.48;100.00
29903;BME280;30288;50.514;9.678;2023-02-01T03:56:50;98863.06;;;4.45;100.00
29903;BME280;30288;50.514;9.678;2023-02-01T03:59:00;98865.56;;;4.42;100.00
29903;BME280;30288;50.514;9.678;2023-02-01T04:01:09;98865.53;;;4.43;100.00
29903;BME280;30288;50.514;9.678;2023-02-01T04:03:15;98869.72;;;4.30;100.00
29903;BME280;30288;50.514;9.678;2023-02-01T04:05:22;98867.22;;;4.32;100.00
29903;BME280;30288;50.514;9.678;2023-02-01T04:07:37;98869.72;;;4.23;100.00
29903;BME280;30288;50.514;9.678;2023-02-01T04:09:42;98864.69;;;4.43;100.00
29903;BME280;30288;50.514;9.678;2023-02-01T04:11:47;98877.16;;;4.55;100.00
29903;BME280;30288;50.514;9.678;2023-02-01T04:13:53;98862.22;;;4.44;100.00
29903;BME280;30288;50.514;9.678;2023-02-01T04:15:58;98868.03;;;4.45;100.00
29903;BME280;30288;50.514;9.678;2023-02-01T04:18:04;98866.38;;;4.37;100.00
29903;BME280;30288;50.514;9.678;2023-02-01T04:20:10;98868.06;;;4.42;100.00
29903;BME280;30288;50.514;9.678;2023-02-01T04:22:15;98862.22;;;4.38;100.00
29903;BME280;30288;50.514;9.678;2023-02-01T04:24:23;98865.53;;;4.38;100.00
29903;BME280;30288;50.514;9.678;2023-02-01T04:26:29;98875.50;;;4.32;100.00
29903;BME280;30288;50.514;9.678;2023-02-01T04:28:34;98866.38;;;4.40;100.00
29903;BME280;30288;50.514;9.678;2023-02-01T04:30:39;98868.03;;;4.45;100.00
29903;BME280;30288;50.514;9.678;2023-02-01T04:32:45;98856.41;;;4.40;100.00
29903;BME280;30288;50.514;9.678;2023-02-01T04:34:50;98864.72;;;4.33;100.00
29903;BME280;30288;50.514;9.678;2023-02-01T04:36:55;98858.06;;;4.29;100.00
29903;BME280;30288;50.514;9.678;2023-02-01T04:39:01;98868.88;;;4.28;100.00
29903;BME280;30288;50.514;9.678;2023-02-01T04:41:08;98855.59;;;4.31;100.00
29903;BME280;30288;50.514;9.678;2023-02-01T04:43:14;98854.75;;;4.36;100.00
29903;BME280;30288;50.514;9.678;2023-02-01T04:45:19;98858.06;;;4.40;100.00
29903;BME280;30288;50.514;9.678;2023-02-01T04:47:24;98853.09;;;4.42;100.00
29903;BME280;30288;50.514;9.678;2023-02-01T04:49:30;98858.06;;;4.32;100.00
29903;BME280;30288;50.514;9.678;2023-02-01T04:51:36;98864.72;;;4.30;100.00
29903;BME280;30288;50.514;9.678;2023-02-01T04:53:42;98845.59;;;4.28;100.00
29903;BME280;30288;50.514;9.678;2023-02-01T04:55:48;98848.94;;;4.27;100.00
29903;BME280;30288;50.514;9.678;2023-02-01T04:57:57;98854.75;;;4.30;100.00
29903;BME280;30288;50.514;9.678;2023-02-01T05:00:04;98861.41;;;4.30;100.00
29903;BME280;30288;50.514;9.678;2023-02-01T05:02:09;98850.59;;;4.34;100.00
29903;BME280;30288;50.514;9.678;2023-02-01T05:04:15;98849.75;;;4.33;100.00
29903;BME280;30288;50.514;9.678;2023-02-01T05:06:21;98853.09;;;4.35;100.00
29903;BME280;30288;50.514;9.678;2023-02-01T05:08:27;98846.44;;;4.37;100.00
29903;BME280;30288;50.514;9.678;2023-02-01T05:10:33;98855.56;;;4.40;100.00
29903;BME280;30288;50.514;9.678;2023-02-01T05:12:38;98853.91;;;4.37;100.00
29903;BME280;30288;50.514;9.678;2023-02-01T05:14:58;98850.59;;;4.32;100.00
29903;BME280;30288;50.514;9.678;2023-02-01T05:17:03;98848.09;;;4.25;100.00
29903;BME280;30288;50.514;9.678;2023-02-01T05:19:08;98849.78;;;4.27;100.00
29903;BME280;30288;50.514;9.678;2023-02-01T05:21:13;98849.78;;;4.21;100.00
29903;BME280;30288;50.514;9.678;2023-02-01T05:23:19;98842.31;;;4.27;100.00
29903;BME280;30288;50.514;9.678;2023-02-01T05:25:24;98838.97;;;4.24;100.00
29903;BME280;30288;50.514;9.678;2023-02-01T05:27:30;98841.50;;;4.13;100.00
29903;BME280;30288;50.514;9.678;2023-02-01T05:29:36;98829.84;;;4.09;100.00
29903;BME280;30288;50.514;9.678;2023-02-01T05:31:44;98828.19;;;4.05;100.00
29903;BME280;30288;50.514;9.678;2023-02-01T05:33:50;98830.69;;;4.07;100.00
29903;BME280;30288;50.514;9.678;2023-02-01T05:35:55;98839.84;;;4.03;100.00
29903;BME280;30288;50.514;9.678;2023-02-01T05:38:00;98836.47;;;3.95;100.00
29903;BME280;30288;50.514;9.678;2023-02-01T05:40:08;98831.50;;;3.95;100.00
29903;BME280;30288;50.514;9.678;2023-02-01T05:42:13;98826.53;;;3.95;100.00
29903;BME280;30288;50.514;9.678;2023-02-01T05:44:19;98825.69;;;3.94;100.00
29903;BME280;30288;50.514;9.678;2023-02-01T05:46:24;98838.16;;;3.99;100.00
29903;BME280;30288;50.514;9.678;2023-02-01T05:48:32;98837.34;;;3.97;100.00
29903;BME280;30288;50.514;9.678;2023-02-01T05:50:37;98837.34;;;3.92;100.00
29903;BME280;30288;50.514;9.678;2023-02-01T05:52:45;98825.69;;;3.94;100.00
29903;BME280;30288;50.514;9.678;2023-02-01T05:54:50;98828.19;;;3.88;100.00
29903;BME280;30288;50.514;9.678;2023-02-01T05:56:55;98828.19;;;3.81;100.00
29903;BME280;30288;50.514;9.678;2023-02-01T05:59:00;98830.66;;;3.81;100.00
29903;BME280;30288;50.514;9.678;2023-02-01T06:01:05;98834.81;;;3.76;100.00
29903;BME280;30288;50.514;9.678;2023-02-01T06:03:11;98839.81;;;3.70;100.00
29903;BME280;30288;50.514;9.678;2023-02-01T06:05:19;98852.25;;;3.70;100.00
29903;BME280;30288;50.514;9.678;2023-02-01T06:07:24;98853.09;;;3.73;100.00
29903;BME280;30288;50.514;9.678;2023-02-01T06:09:30;98851.44;;;3.77;100.00
29903;BME280;30288;50.514;9.678;2023-02-01T06:11:36;98840.66;;;3.87;100.00
29903;BME280;30288;50.514;9.678;2023-02-01T06:13:42;98831.50;;;4.01;100.00
29903;BME280;30288;50.514;9.678;2023-02-01T06:15:47;98826.50;;;4.04;100.00
29903;BME280;30288;50.514;9.678;2023-02-01T06:17:53;98821.53;;;4.04;100.00
29903;BME280;30288;50.514;9.678;2023-02-01T06:19:58;98821.56;;;4.07;100.00
29903;BME280;30288;50.514;9.678;2023-02-01T06:22:06;98816.56;;;4.01;100.00
29903;BME280;30288;50.514;9.678;2023-02-01T06:24:11;98818.22;;;4.08;100.00
29903;BME280;30288;50.514;9.678;2023-02-01T06:26:17;98818.22;;;4.17;100.00
29903;BME280;30288;50.514;9.678;2023-02-01T06:28:22;98819.88;;;4.21;100.00
29903;BME280;30288;50.514;9.678;2023-02-01T06:30:28;98824.03;;;4.25;100.00
29903;BME280;30288;50.514;9.678;2023-02-01T06:32:33;98816.56;;;4.22;100.00
29903;BME280;30288;50.514;9.678;2023-02-01T06:34:38;98826.53;;;4.16;100.00
29903;BME280;30288;50.514;9.678;2023-02-01T06:36:44;98835.66;;;4.11;100.00
29903;BME280;30288;50.514;9.678;2023-02-01T06:38:51;98829.84;;;4.15;100.00
29903;BME280;30288;50.514;9.678;2023-02-01T06:41:01;98821.56;;;4.07;100.00
29903;BME280;30288;50.514;9.678;2023-02-01T06:43:06;98819.88;;;3.97;100.00
29903;BME280;30288;50.514;9.678;2023-02-01T06:45:11;98819.88;;;3.97;100.00
29903;BME280;30288;50.514;9.678;2023-02-01T06:47:16;98826.53;;;4.00;100.00
29903;BME280;30288;50.514;9.678;2023-02-01T06:49:21;98829.84;;;4.00;100.00
29903;BME280;30288;50.514;9.678;2023-02-01T06:51:28;98819.03;;;4.06;100.00
29903;BME280;30288;50.514;9.678;2023-02-01T06:53:33;98820.72;;;3.97;100.00
29903;BME280;30288;50.514;9.678;2023-02-01T06:55:41;98812.41;;;4.00;100.00
29903;BME280;30288;50.514;9.678;2023-02-01T06:57:46;98814.91;;;4.00;100.00
29903;BME280;30288;50.514;9.678;2023-02-01T06:59:51;98821.56;;;3.92;100.00
29903;BME280;30288;50.514;9.678;2023-02-01T07:01:57;98816.56;;;3.86;100.00
29903;BME280;30288;50.514;9.678;2023-02-01T07:04:02;98812.41;;;3.83;100.00
29903;BME280;30288;50.514;9.678;2023-02-01T07:06:09;98811.59;;;3.92;100.00
29903;BME280;30288;50.514;9.678;2023-02-01T07:08:14;98818.22;;;3.96;100.00
29903;BME280;30288;50.514;9.678;2023-02-01T07:10:19;98816.56;;;4.01;100.00
29903;BME280;30288;50.514;9.678;2023-02-01T07:12:28;98812.41;;;3.95;100.00
29903;BME280;30288;50.514;9.678;2023-02-01T07:14:33;98811.59;;;3.92;100.00
29903;BME280;30288;50.514;9.678;2023-02-01T07:16:39;98804.09;;;3.77;100.00
29903;BME280;30288;50.514;9.678;2023-02-01T07:18:44;98811.59;;;3.83;100.00
29903;BME280;30288;50.514;9.678;2023-02-01T07:20:50;98810.75;;;3.84;100.00
29903;BME280;30288;50.514;9.678;2023-02-01T07:22:57;98815.72;;;3.91;100.00
29903;BME280;30288;50.514;9.678;2023-02-01T07:25:02;98799.94;;;4.02;100.00
29903;BME280;30288;50.514;9.678;2023-02-01T07:27:08;98796.59;;;4.19;100.00
29903;BME280;30288;50.514;9.678;2023-02-01T07:29:17;98814.88;;;4.27;100.00
29903;BME280;30288;50.514;9.678;2023-02-01T07:31:24;98825.66;;;4.42;100.00
29903;BME280;30288;50.514;9.678;2023-02-01T07:33:32;98814.81;;;4.52;100.00
29903;BME280;30288;50.514;9.678;2023-02-01T07:35:38;98811.47;;;4.59;100.00
29903;BME280;30288;50.514;9.678;2023-02-01T07:37:43;98829.75;;;4.64;100.00
29903;BME280;30288;50.514;9.678;2023-02-01T07:39:48;98813.97;;;4.59;100.00
29903;BME280;30288;50.514;9.678;2023-02-01T07:41:53;98821.44;;;4.65;100.00
29903;BME280;30288;50.514;9.678;2023-02-01T07:43:58;98824.75;;;4.67;100.00
29903;BME280;30288;50.514;9.678;2023-02-01T07:46:06;98818.91;;;4.77;100.00
29903;BME280;30288;50.514;9.678;2023-02-01T07:48:12;98821.38;;;4.80;100.00
29903;BME280;30288;50.514;9.678;2023-02-01T07:50:18;98821.38;;;4.86;100.00
29903;BME280;30288;50.514;9.678;2023-02-01T07:52:23;98818.88;;;4.89;100.00
29903;BME280;30288;50.514;9.678;2023-02-01T07:54:28;98813.91;;;4.84;100.00
29903;BME280;30288;50.514;9.678;2023-02-01T07:56:34;98829.72;;;4.73;100.00
29903;BME280;30288;50.514;9.678;2023-02-01T07:58:39;98811.47;;;4.62;100.00
29903;BME280;30288;50.514;9.678;2023-02-01T08:00:45;98818.13;;;4.60;100.00
29903;BME280;30288;50.514;9.678;2023-02-01T08:03:08;98843.09;;;4.54;100.00
29903;BME280;30288;50.514;9.678;2023-02-01T08:05:14;98841.41;;;4.65;100.00
29903;BME280;30288;50.514;9.678;2023-02-01T08:07:19;98840.53;;;4.73;100.00
29903;BME280;30288;50.514;9.678;2023-02-01T08:09:24;98831.31;;;4.92;100.00
29903;BME280;30288;50.514;9.678;2023-02-01T08:11:31;98827.16;;;4.93;100.00
29903;BME280;30288;50.514;9.678;2023-02-01T08:13:40;98819.69;;;4.94;100.00
29903;BME280;30288;50.514;9.678;2023-02-01T08:15:47;98836.31;;;4.92;100.00
29903;BME280;30288;50.514;9.678;2023-02-01T08:17:53;98834.63;;;5.00;100.00
29903;BME280;30288;50.514;9.678;2023-02-01T08:20:06;98835.41;;;5.10;100.00
29903;BME280;30288;50.514;9.678;2023-02-01T08:22:13;98841.19;;;5.13;100.00
29903;BME280;30288;50.514;9.678;2023-02-01T08:24:20;98835.38;;;5.16;100.00
29903;BME280;30288;50.514;9.678;2023-02-01T08:26:26;98841.22;;;5.16;100.00
29903;BME280;30288;50.514;9.678;2023-02-01T08:28:31;98846.19;;;5.19;100.00
29903;BME280;30288;50.514;9.678;2023-02-01T08:30:39;98857.81;;;5.23;100.00
29903;BME280;30288;50.514;9.678;2023-02-01T08:32:44;98837.00;;;5.23;100.00
29903;BME280;30288;50.514;9.678;2023-02-01T08:34:49;98857.81;;;5.26;100.00
29903;BME280;30288;50.514;9.678;2023-02-01T08:36:57;98863.63;;;5.30;100.00
29903;BME280;30288;50.514;9.678;2023-02-01T08:39:02;98851.97;;;5.27;100.00
29903;BME280;30288;50.514;9.678;2023-02-01T08:41:13;98868.59;;;5.30;100.00
29903;BME280;30288;50.514;9.678;2023-02-01T08:43:18;98863.63;;;5.27;100.00
29903;BME280;30288;50.514;9.678;2023-02-01T08:45:26;98873.66;;;5.22;100.00
29903;BME280;30288;50.514;9.678;2023-02-01T08:47:32;98867.81;;;5.20;100.00
29903;BME280;30288;50.514;9.678;2023-02-01T08:49:37;98874.47;;;5.21;100.00
29903;BME280;30288;50.514;9.678;2023-02-01T08:51:42;98874.50;;;5.15;100.00
29903;BME280;30288;50.514;9.678;2023-02-01T08:53:51;98874.50;;;5.15;100.00
29903;BME280;30288;50.514;9.678;2023-02-01T08:55:56;98874.47;;;5.21;100.00
29903;BME280;30288;50.514;9.678;2023-02-01T08:58:01;98876.13;;;5.25;100.00
29903;BME280;30288;50.514;9.678;2023-02-01T09:00:10;98869.44;;;5.27;100.00
29903;BME280;30288;50.514;9.678;2023-02-01T09:02:18;98876.97;;;5.21;100.00
29903;BME280;30288;50.514;9.678;2023-02-01T09:04:23;98881.16;;;5.16;100.00
29903;BME280;30288;50.514;9.678;2023-02-01T09:06:29;98880.38;;;5.08;100.00
29903;BME280;30288;50.514;9.678;2023-02-01T09:08:35;98881.19;;;5.04;100.00
29903;BME280;30288;50.514;9.678;2023-02-01T09:10:43;98888.69;;;5.03;100.00
29903;BME280;30288;50.514;9.678;2023-02-01T09:12:48;98873.66;;;5.13;100.00
29903;BME280;30288;50.514;9.678;2023-02-01T09:14:54;98879.50;;;5.15;100.00
29903;BME280;30288;50.514;9.678;2023-02-01T09:17:01;98883.66;;;5.15;100.00
29903;BME280;30288;50.514;9.678;2023-02-01T09:19:07;98892.81;;;5.11;100.00
29903;BME280;30288;50.514;9.678;2023-02-01T09:21:29;98872.84;;;5.11;100.00
29903;BME280;30288;50.514;9.678;2023-02-01T09:23:35;98890.31;;;5.16;100.00
29903;BME280;30288;50.514;9.678;2023-02-01T09:25:43;98892.75;;;5.23;100.00
29903;BME280;30288;50.514;9.678;2023-02-01T09:27:51;98911.91;;;5.20;100.00
29903;BME280;30288;50.514;9.678;2023-02-01T09:29:56;98903.59;;;5.24;100.00
29903;BME280;30288;50.514;9.678;2023-02-01T09:32:01;98916.09;;;5.22;100.00
29903;BME280;30288;50.514;9.678;2023-02-01T09:34:08;98920.22;;;5.25;100.00
29903;BME280;30288;50.514;9.678;2023-02-01T09:36:14;98919.41;;;5.24;100.00
29903;BME280;30288;50.514;9.678;2023-02-01T09:38:21;98921.88;;;5.32;100.00
29903;BME280;30288;50.514;9.678;2023-02-01T09:40:28;98923.59;;;5.22;100.00
29903;BME280;30288;50.514;9.678;2023-02-01T09:43:09;98919.47;;;5.03;100.00
29903;BME280;30288;50.514;9.678;2023-02-01T09:45:24;98934.47;;;4.97;100.00
29903;BME280;30288;50.514;9.678;2023-02-01T09:47:31;98924.47;;;4.97;100.00
29903;BME280;30288;50.514;9.678;2023-02-01T09:49:45;98937.78;;;5.02;100.00
29903;BME280;30288;50.514;9.678;2023-02-01T09:51:56;98930.28;;;5.02;100.00
29903;BME280;30288;50.514;9.678;2023-02-01T09:54:05;98939.41;;;5.12;100.00
29903;BME280;30288;50.514;9.678;2023-02-01T09:56:18;98942.75;;;5.17;100.00
29903;BME280;30288;50.514;9.678;2023-02-01T09:58:33;98934.38;;;5.31;100.00
29903;BME280;30288;50.514;9.678;2023-02-01T10:00:42;98936.03;;;5.24;100.00
29903;BME280;30288;50.514;9.678;2023-02-01T10:02:50;98949.38;;;5.21;100.00
29903;BME280;30288;50.514;9.678;2023-02-01T10:04:58;98956.03;;;5.13;100.00
29903;BME280;30288;50.514;9.678;2023-02-01T10:07:17;98954.41;;;5.06;100.00
29903;BME280;30288;50.514;9.678;2023-02-01T10:09:42;98950.25;;;5.07;100.00
29903;BME280;30288;50.514;9.678;2023-02-01T10:14:43;98942.75;;;5.13;100.00
29903;BME280;30288;50.514;9.678;2023-02-01T10:16:57;98945.25;;;5.13;100.00
29903;BME280;30288;50.514;9.678;2023-02-01T10:19:24;98949.41;;;5.12;100.00
29903;BME280;30288;50.514;9.678;2023-02-01T10:21:51;98943.53;;;5.19;100.00
29903;BME280;30288;50.514;9.678;2023-02-01T10:24:10;98931.06;;;5.25;100.00
29903;BME280;30288;50.514;9.678;2023-02-01T10:26:22;98947.69;;;5.23;100.00
29903;BME280;30288;50.514;9.678;2023-02-01T10:28:28;98931.88;;;5.23;100.00
29903;BME280;30288;50.514;9.678;2023-02-01T10:30:40;98929.41;;;5.21;100.00
29903;BME280;30288;50.514;9.678;2023-02-01T10:32:54;98926.06;;;5.13;100.00
29903;BME280;30288;50.514;9.678;2023-02-01T10:35:05;98915.25;;;5.14;100.00
29903;BME280;30288;50.514;9.678;2023-02-01T10:37:25;98912.72;;;5.23;100.00
29903;BME280;30288;50.514;9.678;2023-02-01T10:39:31;98912.75;;;5.26;100.00
29903;BME280;30288;50.514;9.678;2023-02-01T10:41:39;98906.88;;;5.34;100.00
29903;BME280;30288;50.514;9.678;2023-02-01T10:43:48;98900.19;;;5.37;100.00
29903;BME280;30288;50.514;9.678;2023-02-01T10:45:57;98898.50;;;5.44;100.00
29903;BME280;30288;50.514;9.678;2023-02-01T10:48:03;98892.69;;;5.45;100.00
29903;BME280;30288;50.514;9.678;2023-02-01T10:50:19;98900.19;;;5.46;100.00
29903;BME280;30288;50.514;9.678;2023-02-01T10:52:39;98898.47;;;5.50;100.00
29903;BME280;30288;50.514;9.678;2023-02-01T10:54:46;98886.81;;;5.50;100.00
29903;BME280;30288;50.514;9.678;2023-02-01T10:56:51;98894.28;;;5.52;100.00
29903;BME280;30288;50.514;9.678;2023-02-01T10:59:01;98889.28;;;5.56;100.00
29903;BME280;30288;50.514;9.678;2023-02-01T11:01:16;98900.91;;;5.63;100.00
29903;BME280;30288;50.514;9.678;2023-02-01T11:03:36;98895.91;;;5.62;100.00
29903;BME280;30288;50.514;9.678;2023-02-01T11:05:44;98893.41;;;5.62;100.00
29903;BME280;30288;50.514;9.678;2023-02-01T11:07:53;98890.97;;;5.56;100.00
29903;BME280;30288;50.514;9.678;2023-02-01T11:10:03;98902.66;;;5.51;100.00
29903;BME280;30288;50.514;9.678;2023-02-01T11:12:30;98900.97;;;5.47;100.00
29903;BME280;30288;50.514;9.678;2023-02-01T11:14:39;98897.66;;;5.51;100.00
29903;BME280;30288;50.514;9.678;2023-02-01T11:16:52;98899.28;;;5.52;100.00
29903;BME280;30288;50.514;9.678;2023-02-01T11:18:57;98892.59;;;5.60;100.00
29903;BME280;30288;50.514;9.678;2023-02-01T11:21:05;98901.78;;;5.55;100.00
29903;BME280;30288;50.514;9.678;2023-02-01T11:23:16;98889.28;;;5.58;100.00
29903;BME280;30288;50.514;9.678;2023-02-01T11:25:22;98882.59;;;5.57;100.00
29903;BME280;30288;50.514;9.678;2023-02-01T11:27:28;98885.97;;;5.53;100.00
29903;BME280;30288;50.514;9.678;2023-02-01T11:29:38;98895.16;;;5.49;100.00
29903;BME280;30288;50.514;9.678;2023-02-01T11:31:48;98891.00;;;5.44;100.00